createdAt,value
2022-11-28T00:02:12.499Z,98247.44
2022-11-28T00:05:14.795Z,98242.16
2022-11-28T00:08:17.290Z,98248.19
2022-11-28T00:11:19.780Z,98237.75
2022-11-28T00:14:21.825Z,98236.81
2022-11-28T00:17:23.891Z,98232.47
2022-11-28T00:20:26.005Z,98224.66
2022-11-28T00:23:28.501Z,98220.28
2022-11-28T00:26:34.606Z,98222.81
2022-11-28T00:29:36.928Z,98214.16
2022-11-28T00:32:39.041Z,98215.84
2022-11-28T00:35:41.111Z,98203.69
2022-11-28T00:38:43.966Z,98203.59
2022-11-28T00:41:46.297Z,98203.59
2022-11-28T00:44:49.455Z,98195.78
2022-11-28T00:47:51.535Z,98185.34
2022-11-28T00:50:54.732Z,98187.16
2022-11-28T00:53:58.720Z,98182.06
2022-11-28T00:57:00.795Z,98182.00
2022-11-28T01:00:04.942Z,98182.06
2022-11-28T01:03:07.009Z,98173.53
2022-11-28T01:06:10.450Z,98172.66
2022-11-28T01:09:24.001Z,98161.50
2022-11-28T01:12:26.100Z,98167.59
2022-11-28T01:15:28.316Z,98157.25
2022-11-28T01:18:30.322Z,98158.59
2022-11-28T01:21:32.562Z,98149.13
2022-11-28T01:24:34.639Z,98149.25
2022-11-28T01:27:36.677Z,98138.22
2022-11-28T01:30:38.848Z,98132.16
2022-11-28T01:33:40.976Z,98123.66
2022-11-28T01:36:43.032Z,98111.91
2022-11-28T01:39:45.110Z,98106.78
2022-11-28T01:42:47.219Z,98110.47
2022-11-28T01:45:49.582Z,98095.84
2022-11-28T01:48:53.202Z,98088.25
2022-11-28T01:52:08.058Z,98076.19
2022-11-28T01:55:13.351Z,98070.38
2022-11-28T01:58:16.048Z,98073.03
2022-11-28T02:01:19.351Z,98068.78
2022-11-28T02:04:22.802Z,98065.47
2022-11-28T02:07:25.014Z,98062.13
2022-11-28T02:10:37.302Z,98055.28
2022-11-28T02:14:14.537Z,98046.78
2022-11-28T02:17:44.770Z,98046.88
2022-11-28T02:21:05.371Z,98046.03
2022-11-28T02:24:25.955Z,98028.00
2022-11-28T02:28:05.706Z,98021.19
2022-11-28T02:31:07.647Z,98023.84
2022-11-28T02:34:20.549Z,98033.31
2022-11-28T02:37:40.815Z,98023.84
2022-11-28T02:41:06.130Z,98016.66
2022-11-28T02:44:33.679Z,98016.59
2022-11-28T02:47:49.528Z,98013.09
2022-11-28T02:51:02.660Z,98016.41
2022-11-28T02:54:08.140Z,98006.84
2022-11-28T02:57:11.087Z,98008.50
2022-11-28T03:00:30.422Z,98003.09
2022-11-28T03:03:38.702Z,97993.41
2022-11-28T03:07:00.317Z,98003.69
2022-11-28T03:10:35.960Z,97992.28
2022-11-28T03:14:01.416Z,97987.75
2022-11-28T03:18:07.505Z,97984.97
2022-11-28T03:21:16.940Z,97994.41
2022-11-28T03:24:29.976Z,97990.00
2022-11-28T03:28:08.412Z,97976.03
2022-11-28T03:31:21.352Z,97972.59
2022-11-28T03:34:27.099Z,97969.94
2022-11-28T03:37:35.320Z,97980.28
2022-11-28T03:40:44.984Z,97974.13
2022-11-28T03:43:53.590Z,97971.41
2022-11-28T03:46:59.513Z,97978.25
2022-11-28T03:50:07.663Z,97973.00
2022-11-28T03:53:17.659Z,97973.72
2022-11-28T03:56:53.967Z,97974.50
2022-11-28T04:00:00.187Z,97976.19
2022-11-28T04:03:12.053Z,97971.84
2022-11-28T04:06:26.435Z,97976.16
2022-11-28T04:09:45.375Z,97967.44
2022-11-28T04:12:57.351Z,97954.50
2022-11-28T04:16:39.857Z,97955.28
2022-11-28T04:19:48.902Z,97944.94
2022-11-28T04:22:56.165Z,97941.38
2022-11-28T04:26:07.854Z,97944.88
2022-11-28T04:29:14.237Z,97948.31
2022-11-28T04:32:22.288Z,97954.31
2022-11-28T04:35:30.952Z,97937.00
2022-11-28T04:38:34.890Z,97939.53
2022-11-28T04:41:46.395Z,97930.06
2022-11-28T04:45:01.403Z,97928.22
2022-11-28T04:48:04.361Z,97924.84
2022-11-28T04:51:16.333Z,97925.69
2022-11-28T04:54:47.501Z,97923.91
2022-11-28T04:57:57.342Z,97914.44
2022-11-28T05:01:02.092Z,97918.72
2022-11-28T05:04:04.443Z,97912.75
2022-11-28T05:07:08.645Z,97914.50
2022-11-28T05:10:13.022Z,97913.59
2022-11-28T05:13:15.682Z,97909.31
2022-11-28T05:16:18.067Z,97907.56
2022-11-28T05:19:20.216Z,97904.94
2022-11-28T05:22:22.735Z,97908.50
2022-11-28T05:25:25.246Z,97902.47
2022-11-28T05:28:27.382Z,97903.38
2022-11-28T05:31:29.561Z,97904.28
2022-11-28T05:34:31.720Z,97909.53
2022-11-28T05:37:34.072Z,97906.88
2022-11-28T05:40:36.289Z,97904.28
2022-11-28T05:43:38.347Z,97901.69
2022-11-28T05:46:40.541Z,97903.44
2022-11-28T05:49:43.354Z,97903.47
2022-11-28T05:52:45.676Z,97902.63
2022-11-28T05:55:48.455Z,97901.69
2022-11-28T05:58:51.215Z,97905.00
2022-11-28T06:01:53.406Z,97892.00
2022-11-28T06:04:55.610Z,97896.34
2022-11-28T06:07:57.832Z,97901.44
2022-11-28T06:11:00.867Z,97891.78
2022-11-28T06:14:03.320Z,97898.75
2022-11-28T06:17:05.400Z,97895.25
2022-11-28T06:20:08.850Z,97892.63
2022-11-28T06:23:10.881Z,97891.72
2022-11-28T06:26:16.240Z,97891.69
2022-11-28T06:29:18.255Z,97890.94
2022-11-28T06:32:22.195Z,97887.31
2022-11-28T06:35:24.441Z,97889.00
2022-11-28T06:38:26.602Z,97881.16
2022-11-28T06:41:28.788Z,97881.00
2022-11-28T06:44:30.925Z,97887.06
2022-11-28T06:47:33.191Z,97876.53
2022-11-28T06:50:35.216Z,97890.25
2022-11-28T06:53:37.409Z,97877.25
2022-11-28T06:56:41.119Z,97878.03
2022-11-28T06:59:43.449Z,97874.50
2022-11-28T07:02:45.603Z,97876.34
2022-11-28T07:05:48.342Z,97874.59
2022-11-28T07:08:51.293Z,97872.94
2022-11-28T07:11:53.328Z,97866.91
2022-11-28T07:14:55.928Z,97869.22
2022-11-28T07:17:58.002Z,97862.44
2022-11-28T07:21:00.110Z,97862.53
2022-11-28T07:24:02.706Z,97856.56
2022-11-28T07:27:04.886Z,97865.22
2022-11-28T07:30:08.029Z,97854.75
2022-11-28T07:33:10.095Z,97860.56
2022-11-28T07:36:15.293Z,97860.19
2022-11-28T07:39:17.774Z,97862.31
2022-11-28T07:42:20.390Z,97849.00
2022-11-28T07:45:59.279Z,97843.63
2022-11-28T07:49:04.595Z,97847.75
2022-11-28T07:52:06.639Z,97852.78
2022-11-28T07:55:08.934Z,97844.00
2022-11-28T07:58:11.045Z,97837.69
2022-11-28T08:01:22.595Z,97844.25
2022-11-28T08:04:24.824Z,97833.53
2022-11-28T08:07:27.058Z,97845.50
2022-11-28T08:10:29.264Z,97837.34
2022-11-28T08:13:31.401Z,97831.81
2022-11-28T08:16:33.814Z,97835.78
2022-11-28T08:19:36.767Z,97839.72
2022-11-28T08:22:38.960Z,97826.31
2022-11-28T08:25:41.054Z,97829.41
2022-11-28T08:28:43.786Z,97832.66
2022-11-28T08:31:46.237Z,97830.97
2022-11-28T08:34:48.242Z,97835.16
2022-11-28T08:37:50.437Z,97828.97
2022-11-28T08:41:03.932Z,97825.97
2022-11-28T08:44:06.095Z,97823.94
2022-11-28T08:47:08.162Z,97821.94
2022-11-28T08:50:10.491Z,97821.19
2022-11-28T08:53:12.562Z,97822.72
2022-11-28T08:56:14.599Z,97810.66
2022-11-28T08:59:16.702Z,97822.81
2022-11-28T09:02:21.993Z,97812.38
2022-11-28T09:05:29.700Z,97815.00
2022-11-28T09:08:31.879Z,97816.06
2022-11-28T09:11:33.889Z,97801.72
2022-11-28T09:14:35.968Z,97810.34
2022-11-28T09:17:38.004Z,97810.94
2022-11-28T09:20:40.392Z,97798.84
2022-11-28T09:23:44.790Z,97813.19
2022-11-28T09:26:46.910Z,97801.56
2022-11-28T09:29:48.995Z,97802.72
2022-11-28T09:32:51.096Z,97810.00
2022-11-28T09:35:53.131Z,97793.03
2022-11-28T09:38:55.199Z,97794.69
2022-11-28T09:42:06.285Z,97786.84
2022-11-28T09:45:12.606Z,97790.00
2022-11-28T09:48:34.844Z,97777.75
2022-11-28T09:51:50.177Z,97766.63
2022-11-28T09:55:11.247Z,97768.00
2022-11-28T09:58:25.020Z,97761.13
2022-11-28T10:01:37.885Z,97750.22
2022-11-28T10:05:19.277Z,97744.16
2022-11-28T10:08:36.376Z,97752.06
2022-11-28T10:12:01.011Z,97753.16
2022-11-28T10:15:03.081Z,97747.34
2022-11-28T10:18:22.962Z,97740.78
2022-11-28T10:21:40.622Z,97747.63
2022-11-28T10:24:48.589Z,97741.53
2022-11-28T10:27:51.754Z,97744.28
2022-11-28T10:31:02.043Z,97741.13
2022-11-28T10:34:20.461Z,97720.59
2022-11-28T10:37:26.970Z,97729.94
2022-11-28T10:40:29.072Z,97733.75
2022-11-28T10:43:46.899Z,97724.50
2022-11-28T10:46:52.012Z,97718.81
2022-11-28T10:49:57.001Z,97714.38
2022-11-28T10:53:03.494Z,97710.56
2022-11-28T10:56:33.605Z,97701.44
2022-11-28T10:59:41.985Z,97698.97
2022-11-28T11:02:55.067Z,97704.56
2022-11-28T11:05:57.518Z,97690.94
2022-11-28T11:09:00.664Z,97696.41
2022-11-28T11:12:04.766Z,97694.56
2022-11-28T11:15:30.719Z,97696.28
2022-11-28T11:18:51.231Z,97700.13
2022-11-28T11:22:09.659Z,97691.44
2022-11-28T11:25:17.242Z,97688.66
2022-11-28T11:28:33.059Z,97691.19
2022-11-28T11:31:46.898Z,97693.38
2022-11-28T11:34:50.135Z,97683.66
2022-11-28T11:38:12.677Z,97681.78
2022-11-28T11:41:31.571Z,97689.38
2022-11-28T11:44:34.992Z,97701.28
2022-11-28T11:47:42.635Z,97694.19
2022-11-28T11:50:54.871Z,97693.13
2022-11-28T11:54:26.256Z,97694.28
2022-11-28T11:57:46.507Z,97684.06
2022-11-28T12:00:48.654Z,97703.88
2022-11-28T12:03:58.339Z,97687.31
2022-11-28T12:07:05.132Z,97693.50
2022-11-28T12:10:16.429Z,97684.16
2022-11-28T12:13:22.215Z,97694.41
2022-11-28T12:16:55.903Z,97690.97
2022-11-28T12:20:34.083Z,97695.34
2022-11-28T12:23:54.486Z,97687.69
2022-11-28T12:26:59.199Z,97678.81
2022-11-28T12:30:29.351Z,97689.34
2022-11-28T12:33:48.482Z,97689.47
2022-11-28T12:37:14.806Z,97693.19
2022-11-28T12:40:55.281Z,97692.81
2022-11-28T12:44:27.234Z,97683.03
2022-11-28T12:47:44.424Z,97680.78
2022-11-28T12:50:52.794Z,97684.22
2022-11-28T12:53:54.877Z,97676.38
2022-11-28T12:57:02.997Z,97685.00
2022-11-28T13:00:19.951Z,97687.50
2022-11-28T13:04:11.393Z,97688.28
2022-11-28T13:07:21.529Z,97673.84
2022-11-28T13:10:42.043Z,97684.78
2022-11-28T13:14:14.893Z,97692.09
2022-11-28T13:17:22.828Z,97694.69
2022-11-28T13:20:29.687Z,97695.72
2022-11-28T13:24:13.346Z,97704.19
2022-11-28T13:27:54.957Z,97694.34
2022-11-28T13:31:23.028Z,97693.28
2022-11-28T13:34:25.505Z,97694.13
2022-11-28T13:41:52.722Z,97696.31
2022-11-28T13:45:07.510Z,97689.69
2022-11-28T13:52:29.620Z,97700.25
2022-11-28T13:55:47.044Z,97702.78
2022-11-28T13:59:00.916Z,97712.78
2022-11-28T14:02:16.308Z,97713.63
2022-11-28T14:05:30.959Z,97720.69
2022-11-28T14:08:40.403Z,97728.59
2022-11-28T14:11:57.598Z,97718.25
2022-11-28T14:15:24.360Z,97720.38
2022-11-28T14:19:00.508Z,97726.28
2022-11-28T14:22:21.339Z,97727.13
2022-11-28T14:25:26.747Z,97733.50
2022-11-28T14:28:36.871Z,97734.66
2022-11-28T14:31:40.110Z,97725.66
2022-11-28T14:34:46.399Z,97734.59
2022-11-28T14:37:54.223Z,97725.47
2022-11-28T14:40:57.196Z,97732.19
2022-11-28T14:44:47.160Z,97734.81
2022-11-28T14:48:24.449Z,97737.81
2022-11-28T14:52:09.914Z,97739.53
2022-11-28T14:55:22.118Z,97737.16
2022-11-28T14:58:24.221Z,97749.38
2022-11-28T15:01:55.765Z,97750.56
2022-11-28T15:05:35.466Z,97754.28
2022-11-28T15:09:13.779Z,97749.22
2022-11-28T15:12:37.865Z,97751.97
2022-11-28T15:15:49.212Z,97750.59
2022-11-28T15:18:57.102Z,97755.22
2022-11-28T15:22:01.137Z,97754.66
2022-11-28T15:25:22.034Z,97757.50
2022-11-28T15:28:28.530Z,97754.81
2022-11-28T15:31:33.152Z,97763.56
2022-11-28T15:34:37.614Z,97752.56
2022-11-28T15:37:46.131Z,97759.66
2022-11-28T15:40:53.721Z,97760.63
2022-11-28T15:43:57.056Z,97770.28
2022-11-28T15:46:59.426Z,97773.28
2022-11-28T15:50:11.846Z,97778.41
2022-11-28T15:53:19.240Z,97770.50
2022-11-28T15:56:21.450Z,97778.41
2022-11-28T15:59:23.675Z,97782.72
2022-11-28T16:02:34.159Z,97792.66
2022-11-28T16:05:36.430Z,97782.38
2022-11-28T16:08:46.211Z,97779.53
2022-11-28T16:11:53.468Z,97783.97
2022-11-28T16:15:01.952Z,97778.34
2022-11-28T16:18:04.525Z,97779.22
2022-11-28T16:21:14.700Z,97775.63
2022-11-28T16:24:38.763Z,97788.19
2022-11-28T16:27:44.695Z,97778.13
2022-11-28T16:30:48.828Z,97779.16
2022-11-28T16:33:52.385Z,97778.41
2022-11-28T16:36:54.943Z,97783.59
2022-11-28T16:40:35.774Z,97785.16
2022-11-28T16:43:40.792Z,97793.25
2022-11-28T16:47:00.512Z,97782.13
2022-11-28T16:50:20.251Z,97780.38
2022-11-28T16:53:44.278Z,97779.47
2022-11-28T16:56:48.076Z,97777.00
2022-11-28T16:59:54.386Z,97788.47
2022-11-28T17:02:56.845Z,97793.59
2022-11-28T17:06:01.267Z,97804.94
2022-11-28T17:09:08.539Z,97793.00
2022-11-28T17:12:27.886Z,97802.63
2022-11-28T17:15:30.777Z,97796.78
2022-11-28T17:18:33.554Z,97808.19
2022-11-28T17:21:43.268Z,97803.84
2022-11-28T17:24:47.143Z,97795.91
2022-11-28T17:27:49.874Z,97796.78
2022-11-28T17:30:52.762Z,97794.25
2022-11-28T17:33:57.074Z,97796.78
2022-11-28T17:37:04.355Z,97800.31
2022-11-28T17:40:26.553Z,97805.53
2022-11-28T17:43:32.414Z,97804.81
2022-11-28T17:46:39.003Z,97801.72
2022-11-28T17:49:46.160Z,97800.88
2022-11-28T17:52:49.719Z,97805.16
2022-11-28T17:55:59.012Z,97800.88
2022-11-28T17:59:03.066Z,97804.25
2022-11-28T18:02:06.102Z,97801.72
2022-11-28T18:05:09.376Z,97802.88
2022-11-28T18:08:16.807Z,97804.63
2022-11-28T18:11:23.803Z,97800.28
2022-11-28T18:14:28.487Z,97800.38
2022-11-28T18:17:33.761Z,97797.69
2022-11-28T18:20:39.324Z,97789.13
2022-11-28T18:23:50.025Z,97795.28
2022-11-28T18:26:54.870Z,97799.72
2022-11-28T18:29:58.029Z,97800.56
2022-11-28T18:33:01.325Z,97801.47
2022-11-28T18:36:11.126Z,97800.56
2022-11-28T18:39:16.187Z,97795.28
2022-11-28T18:42:21.379Z,97800.63
2022-11-28T18:45:24.300Z,97804.31
2022-11-28T18:48:27.855Z,97809.63
2022-11-28T18:51:34.851Z,97800.06
2022-11-28T18:54:39.374Z,97802.66
2022-11-28T18:57:42.364Z,97808.50
2022-11-28T19:00:46.667Z,97817.09
2022-11-28T19:03:52.551Z,97806.69
2022-11-28T19:06:56.414Z,97810.97
2022-11-28T19:10:00.460Z,97815.22
2022-11-28T19:13:04.152Z,97823.03
2022-11-28T19:16:09.876Z,97813.50
2022-11-28T19:19:13.324Z,97809.22
2022-11-28T19:22:16.963Z,97810.91
2022-11-28T19:25:19.969Z,97808.25
2022-11-28T19:28:23.819Z,97810.78
2022-11-28T19:31:29.668Z,97809.16
2022-11-28T19:34:34.679Z,97796.13
2022-11-28T19:37:38.155Z,97803.94
2022-11-28T19:40:41.394Z,97800.50
2022-11-28T19:43:45.277Z,97802.53
2022-11-28T19:46:51.065Z,97806.91
2022-11-28T19:49:54.709Z,97808.66
2022-11-28T19:52:59.940Z,97806.81
2022-11-28T19:56:05.622Z,97808.50
2022-11-28T19:59:10.790Z,97810.53
2022-11-28T20:02:15.120Z,97812.16
2022-11-28T20:05:18.859Z,97808.66
2022-11-28T20:08:23.237Z,97813.03
2022-11-28T20:11:30.284Z,97810.41
2022-11-28T20:14:34.777Z,97812.97
2022-11-28T20:17:38.865Z,97806.19
2022-11-28T20:20:43.371Z,97811.38
2022-11-28T20:23:56.686Z,97812.22
2022-11-28T20:27:01.089Z,97811.38
2022-11-28T20:30:07.651Z,97815.69
2022-11-28T20:33:10.798Z,97814.78
2022-11-28T20:36:17.055Z,97823.50
2022-11-28T20:39:20.212Z,97823.50
2022-11-28T20:42:23.984Z,97818.41
2022-11-28T20:45:28.524Z,97818.63
2022-11-28T20:48:31.843Z,97831.66
2022-11-28T20:51:37.094Z,97821.22
2022-11-28T20:54:40.168Z,97826.34
2022-11-28T20:57:43.212Z,97823.06
2022-11-28T21:00:47.414Z,97828.44
2022-11-28T21:03:51.265Z,97835.34
2022-11-28T21:06:54.268Z,97831.94
2022-11-28T21:10:00.692Z,97828.50
2022-11-28T21:13:03.329Z,97832.84
2022-11-28T21:16:08.032Z,97827.66
2022-11-28T21:19:10.590Z,97827.59
2022-11-28T21:22:13.257Z,97829.34
2022-11-28T21:25:15.427Z,97823.25
2022-11-28T21:28:18.133Z,97832.03
2022-11-28T21:31:25.983Z,97835.69
2022-11-28T21:34:28.380Z,97840.03
2022-11-28T21:37:30.630Z,97826.91
2022-11-28T21:40:33.743Z,97832.03
2022-11-28T21:43:35.813Z,97822.59
2022-11-28T21:46:38.029Z,97826.13
2022-11-28T21:49:40.500Z,97828.84
2022-11-28T21:52:42.898Z,97819.56
2022-11-28T21:55:45.580Z,97828.97
2022-11-28T21:58:48.430Z,97818.50
2022-11-28T22:01:50.536Z,97820.34
2022-11-28T22:04:55.188Z,97814.41
2022-11-28T22:07:57.471Z,97823.13
2022-11-28T22:11:03.684Z,97823.06
2022-11-28T22:14:05.882Z,97813.75
2022-11-28T22:17:08.181Z,97814.75
2022-11-28T22:20:10.834Z,97817.34
2022-11-28T22:23:12.986Z,97823.31
2022-11-28T22:26:15.640Z,97831.22
2022-11-28T22:29:18.445Z,97824.44
2022-11-28T22:32:21.095Z,97812.53
2022-11-28T22:35:23.903Z,97816.00
2022-11-28T22:38:26.008Z,97818.72
2022-11-28T22:41:29.626Z,97821.25
2022-11-28T22:44:34.301Z,97817.88
2022-11-28T22:47:36.882Z,97804.88
2022-11-28T22:50:40.684Z,97810.84
2022-11-28T22:53:43.601Z,97816.75
2022-11-28T22:56:45.644Z,97808.09
2022-11-28T22:59:47.739Z,97809.84
2022-11-28T23:02:49.939Z,97808.03
2022-11-28T23:05:52.226Z,97806.34
2022-11-28T23:08:55.874Z,97804.66
2022-11-28T23:12:01.536Z,97813.50
2022-11-28T23:15:04.073Z,97809.28
2022-11-28T23:18:06.310Z,97802.31
2022-11-28T23:21:09.402Z,97815.50
2022-11-28T23:24:18.177Z,97807.78
2022-11-28T23:27:21.044Z,97810.41
2022-11-28T23:30:23.244Z,97802.59
2022-11-28T23:33:25.640Z,97804.47
2022-11-28T23:36:31.087Z,97796.66
2022-11-28T23:39:34.339Z,97807.00
2022-11-28T23:42:41.939Z,97807.13
2022-11-28T23:45:44.005Z,97803.63
2022-11-28T23:48:47.613Z,97800.00
2022-11-28T23:51:49.811Z,97799.16
2022-11-28T23:54:51.847Z,97794.78
2022-11-28T23:57:54.908Z,97783.53
